Time;durP1;ratioP1;P1;durP2;ratioP2;P2;SDS_P1;SDS_P2;PMS_P1;PMS_P2;Temp;Humidity;BMP_temperature;BMP_pressure;BME280_temperature;BME280_humidity;BME280_pressure;Samples;Min_cycle;Max_cycle;Signal;HPM_P1;HPM_P2
2023/03/13 00:01:40;;;;;;;21.20;13.35;;;3.90;68.00;;;;;;5071725;28;20028;-21
2023/03/13 00:06:35;;;;;;;30.48;18.73;;;3.80;68.70;;;;;;5148478;22;20371;-18
2023/03/13 00:09:04;;;;;;;27.35;17.90;;;3.70;70.50;;;;;;5092013;28;20080;-16
2023/03/13 00:11:30;;;;;;;23.15;13.73;;;3.60;70.60;;;;;;5092523;28;20123;-17
2023/03/13 00:14:01;;;;;;;29.98;16.95;;;3.60;69.60;;;;;;5091679;28;20032;-17
2023/03/13 00:16:28;;;;;;;32.88;20.60;;;3.50;69.60;;;;;;5164047;22;20724;-19
2023/03/13 00:18:55;;;;;;;34.90;19.80;;;3.50;69.40;;;;;;5091743;28;20402;-20
2023/03/13 00:21:24;;;;;;;35.28;19.23;;;3.40;69.60;;;;;;5092075;28;20482;-21
2023/03/13 00:23:51;;;;;;;32.70;17.95;;;3.40;69.60;;;;;;5092108;28;20021;-21
2023/03/13 00:26:19;;;;;;;28.02;15.90;;;3.40;69.10;;;;;;5092035;28;20123;-21
2023/03/13 00:28:46;;;;;;;32.70;19.73;;;3.30;68.90;;;;;;5091571;28;20115;-21
2023/03/13 00:31:24;;;;;;;33.63;20.08;;;3.40;69.10;;;;;;5092162;28;20020;-21
2023/03/13 00:33:53;;;;;;;35.05;19.05;;;3.30;69.30;;;;;;5091996;28;20029;-21
2023/03/13 00:36:22;;;;;;;30.83;18.45;;;3.30;69.60;;;;;;5091863;28;20360;-21
2023/03/13 00:38:49;;;;;;;30.40;16.83;;;3.20;69.90;;;;;;5091554;28;20017;-20
2023/03/13 00:41:29;;;;;;;33.72;19.70;;;3.10;70.30;;;;;;5092028;28;20036;-22
2023/03/13 00:43:56;;;;;;;28.20;18.35;;;3.10;70.30;;;;;;5092074;28;20111;-21
2023/03/13 00:46:25;;;;;;;31.63;20.25;;;3.10;70.10;;;;;;5091681;28;20028;-21
2023/03/13 00:48:52;;;;;;;34.13;21.00;;;3.00;69.90;;;;;;5093038;28;20054;-22
2023/03/13 00:51:19;;;;;;;35.25;21.55;;;2.90;69.90;;;;;;5095371;28;20475;-21
2023/03/13 00:53:46;;;;;;;30.88;19.08;;;2.90;70.20;;;;;;5095968;28;20363;-21
2023/03/13 00:56:14;;;;;;;23.08;14.43;;;2.90;70.70;;;;;;5095607;28;20032;-21
2023/03/13 00:58:41;;;;;;;23.83;15.65;;;2.90;70.80;;;;;;5094935;28;20016;-21
2023/03/13 01:01:22;;;;;;;21.85;14.82;;;2.80;71.20;;;;;;5095304;28;20028;-21
2023/03/13 01:03:51;;;;;;;27.05;16.38;;;2.90;70.80;;;;;;5095391;28;20124;-22
2023/03/13 01:06:20;;;;;;;18.50;13.45;;;2.90;70.90;;;;;;5095295;28;20024;-21
2023/03/13 01:08:47;;;;;;;25.13;15.40;;;2.90;70.50;;;;;;5094681;28;20027;-22
2023/03/13 01:11:23;;;;;;;27.00;16.80;;;2.90;69.80;;;;;;5094990;28;20046;-21
2023/03/13 01:13:52;;;;;;;26.05;16.90;;;3.00;70.20;;;;;;5094945;28;20111;-20
2023/03/13 01:16:20;;;;;;;31.92;18.42;;;2.90;70.50;;;;;;5094734;28;20092;-21
2023/03/13 01:18:49;;;;;;;24.83;15.32;;;2.90;70.80;;;;;;5094956;28;20051;-21
2023/03/13 01:21:18;;;;;;;22.85;14.80;;;2.90;70.60;;;;;;5095216;28;20039;-22
2023/03/13 01:23:45;;;;;;;26.17;16.75;;;2.90;70.00;;;;;;5095050;28;20024;-21
2023/03/13 01:26:11;;;;;;;25.65;16.70;;;2.90;70.80;;;;;;5130841;22;20579;-15
2023/03/13 01:28:38;;;;;;;28.60;16.88;;;2.90;70.00;;;;;;5074493;28;20037;-14
2023/03/13 01:31:31;;;;;;;25.10;17.08;;;3.00;70.10;;;;;;5074585;28;20181;-15
2023/03/13 01:33:59;;;;;;;29.20;18.10;;;3.00;70.40;;;;;;5146873;22;20049;-17
2023/03/13 01:36:26;;;;;;;26.67;17.38;;;3.00;71.00;;;;;;5074299;28;20506;-21
2023/03/13 01:38:54;;;;;;;27.85;16.55;;;3.00;71.50;;;;;;5072854;28;20107;-22
2023/03/13 01:41:22;;;;;;;31.42;18.00;;;3.00;71.40;;;;;;5074433;28;20046;-21
2023/03/13 01:43:48;;;;;;;34.65;20.70;;;3.00;72.00;;;;;;5074484;28;20052;-20
2023/03/13 01:46:17;;;;;;;30.02;17.92;;;2.90;71.00;;;;;;5074354;28;20017;-21
2023/03/13 01:49:01;;;;;;;23.83;15.75;;;3.00;71.30;;;;;;5073703;28;20093;-21
2023/03/13 01:51:54;;;;;;;24.83;14.90;;;3.00;70.60;;;;;;5074056;28;20163;-21
2023/03/13 01:54:36;;;;;;;25.17;15.82;;;2.90;70.50;;;;;;5074392;28;20024;-22
2023/03/13 01:57:05;;;;;;;23.95;15.18;;;2.90;70.90;;;;;;5140976;22;20071;-17
2023/03/13 01:59:41;;;;;;;25.02;16.58;;;2.90;71.30;;;;;;5094168;28;20035;-17
2023/03/13 02:02:07;;;;;;;27.13;17.20;;;2.90;71.20;;;;;;5094111;28;20036;-16
2023/03/13 02:04:38;;;;;;;25.15;17.02;;;2.90;71.40;;;;;;5094086;28;20017;-17
2023/03/13 02:07:14;;;;;;;30.92;19.48;;;2.80;71.60;;;;;;5094106;28;20169;-19
2023/03/13 02:09:42;;;;;;;26.65;15.70;;;2.80;71.80;;;;;;5094183;28;20024;-17
2023/03/13 02:12:16;;;;;;;25.67;15.70;;;2.80;72.00;;;;;;5094072;28;20024;-18
2023/03/13 02:14:45;;;;;;;23.77;15.23;;;2.90;71.40;;;;;;5093847;28;20044;-19
2023/03/13 02:17:12;;;;;;;34.33;21.83;;;2.90;71.90;;;;;;5093735;28;20486;-19
2023/03/13 02:19:50;;;;;;;39.97;22.30;;;2.90;72.30;;;;;;5094124;28;20024;-15
2023/03/13 02:22:26;;;;;;;36.05;21.75;;;2.90;72.20;;;;;;5093699;28;20035;-16
2023/03/13 02:25:16;;;;;;;40.88;22.67;;;3.00;73.10;;;;;;5093592;28;20379;-19
2023/03/13 02:27:43;;;;;;;31.80;19.30;;;3.10;73.50;;;;;;5094120;28;20097;-16
2023/03/13 02:30:10;;;;;;;32.92;19.30;;;3.10;74.20;;;;;;5093800;28;20027;-17
2023/03/13 02:32:37;;;;;;;33.17;18.67;;;3.20;73.40;;;;;;5093718;28;20460;-18
2023/03/13 02:35:07;;;;;;;23.17;15.20;;;3.20;73.00;;;;;;5093759;28;20026;-16
2023/03/13 02:37:34;;;;;;;31.65;17.52;;;3.20;71.80;;;;;;5093506;28;20028;-16
2023/03/13 02:40:05;;;;;;;29.30;17.98;;;3.20;72.20;;;;;;5093720;28;20012;-16
2023/03/13 02:42:31;;;;;;;24.27;15.30;;;3.20;72.10;;;;;;5075572;28;20035;-16
2023/03/13 02:44:57;;;;;;;31.30;18.33;;;3.30;72.00;;;;;;5074830;28;20028;-16
2023/03/13 02:47:25;;;;;;;27.13;17.15;;;3.30;71.70;;;;;;5093259;28;20031;-14
2023/03/13 02:49:51;;;;;;;26.70;17.13;;;3.30;72.40;;;;;;5093148;28;20030;-15
2023/03/13 02:52:30;;;;;;;28.77;17.58;;;3.30;73.50;;;;;;5093338;28;20046;-15
2023/03/13 02:55:03;;;;;;;25.35;15.60;;;3.40;73.20;;;;;;5093068;28;20028;-17
2023/03/13 02:57:30;;;;;;;25.48;16.33;;;3.40;72.60;;;;;;5092845;28;20044;-18
2023/03/13 02:59:57;;;;;;;30.20;19.02;;;3.40;72.60;;;;;;5093000;28;20077;-16
2023/03/13 03:02:23;;;;;;;31.52;19.05;;;3.50;73.00;;;;;;5093184;28;20030;-17
2023/03/13 03:04:49;;;;;;;26.15;16.95;;;3.50;72.60;;;;;;5093043;28;20024;-17
2023/03/13 03:07:15;;;;;;;22.73;14.45;;;3.50;72.20;;;;;;5093216;28;20395;-18
2023/03/13 03:09:41;;;;;;;31.27;18.15;;;3.60;72.30;;;;;;5074607;28;20081;-17
2023/03/13 03:12:08;;;;;;;26.70;15.95;;;3.60;71.90;;;;;;5092411;28;20026;-17
2023/03/13 03:14:34;;;;;;;30.98;19.25;;;3.60;71.70;;;;;;5092768;28;20027;-16
2023/03/13 03:17:00;;;;;;;18.40;12.70;;;3.60;71.80;;;;;;5092792;28;20020;-18
2023/03/13 03:19:26;;;;;;;20.10;13.38;;;3.60;71.90;;;;;;5092694;28;20502;-16
2023/03/13 03:21:52;;;;;;;22.08;14.02;;;3.60;71.90;;;;;;5092716;28;20027;-17
2023/03/13 03:24:18;;;;;;;24.80;14.65;;;3.60;72.20;;;;;;5092837;28;20024;-17
2023/03/13 03:26:44;;;;;;;20.80;12.75;;;3.60;72.10;;;;;;5092442;28;20024;-16
2023/03/13 03:29:09;;;;;;;23.85;14.30;;;3.60;72.40;;;;;;5092839;28;20038;-17
2023/03/13 03:31:35;;;;;;;24.55;15.82;;;3.70;72.30;;;;;;5057796;28;20463;-16
2023/03/13 03:34:01;;;;;;;19.67;12.82;;;3.70;72.00;;;;;;5092834;28;20069;-18
2023/03/13 03:36:28;;;;;;;29.63;18.63;;;3.70;72.40;;;;;;5174802;22;20407;-21
2023/03/13 03:38:54;;;;;;;31.58;18.38;;;3.80;72.60;;;;;;5112707;28;20034;-20
2023/03/13 03:41:20;;;;;;;27.65;15.65;;;3.80;72.10;;;;;;5112753;28;20507;-22
2023/03/13 03:43:46;;;;;;;22.48;15.00;;;3.90;72.50;;;;;;5113281;28;20024;-20
2023/03/13 03:46:13;;;;;;;25.83;16.23;;;3.90;72.10;;;;;;5094687;28;20061;-22
2023/03/13 03:48:39;;;;;;;22.55;15.27;;;3.90;71.50;;;;;;5158397;22;20094;-14
2023/03/13 03:51:05;;;;;;;24.30;14.73;;;3.90;72.80;;;;;;5092468;28;20020;-13
2023/03/13 03:53:31;;;;;;;19.65;13.25;;;4.00;72.60;;;;;;5092380;28;20035;-17
2023/03/13 03:55:57;;;;;;;24.23;13.57;;;4.10;72.10;;;;;;5092410;28;20024;-17
2023/03/13 03:58:23;;;;;;;21.83;13.15;;;4.10;71.40;;;;;;5092486;28;20024;-18
2023/03/13 04:00:49;;;;;;;18.67;12.23;;;4.20;71.50;;;;;;5163658;22;20056;-18
2023/03/13 04:03:15;;;;;;;21.25;13.57;;;4.20;71.50;;;;;;5092482;28;20173;-17
2023/03/13 04:05:42;;;;;;;20.02;12.55;;;4.30;75.30;;;;;;5092390;28;20098;-17
2023/03/13 04:08:09;;;;;;;25.95;14.82;;;4.40;74.20;;;;;;5091945;28;20027;-18
2023/03/13 04:10:35;;;;;;;24.35;15.05;;;4.40;75.40;;;;;;5092258;28;20021;-17
2023/03/13 04:13:01;;;;;;;23.15;13.90;;;4.40;74.50;;;;;;5091871;28;20099;-17
2023/03/13 04:15:27;;;;;;;24.25;15.23;;;4.50;75.00;;;;;;5092303;28;20063;-18
2023/03/13 04:17:53;;;;;;;22.80;14.50;;;4.50;75.20;;;;;;5073914;28;20025;-17
2023/03/13 04:20:19;;;;;;;22.85;14.48;;;4.50;74.90;;;;;;5091930;28;20024;-17
2023/03/13 04:22:45;;;;;;;24.10;13.55;;;4.60;74.30;;;;;;5091702;28;20073;-19
2023/03/13 04:25:11;;;;;;;20.52;14.10;;;4.60;73.20;;;;;;5095898;28;20107;-18
2023/03/13 04:27:37;;;;;;;22.48;15.05;;;4.60;72.90;;;;;;5095760;28;20497;-18
2023/03/13 04:30:03;;;;;;;19.65;13.18;;;4.60;72.50;;;;;;5095849;28;20028;-17
2023/03/13 04:32:29;;;;;;;20.98;12.80;;;4.60;72.80;;;;;;5095852;28;20024;-17
2023/03/13 04:34:55;;;;;;;17.02;11.52;;;4.60;73.20;;;;;;5095536;28;20065;-18
2023/03/13 04:37:20;;;;;;;22.77;14.52;;;4.60;73.40;;;;;;5096068;28;20043;-17
2023/03/13 04:39:46;;;;;;;22.85;14.48;;;4.60;73.40;;;;;;5095751;28;20111;-17
2023/03/13 04:42:12;;;;;;;22.10;14.85;;;4.60;72.60;;;;;;5095746;28;20034;-18
2023/03/13 04:44:38;;;;;;;22.92;14.73;;;4.60;72.80;;;;;;5095129;28;20387;-16
2023/03/13 04:47:05;;;;;;;22.58;14.55;;;4.60;72.50;;;;;;5095476;28;20020;-17
2023/03/13 04:49:30;;;;;;;22.42;15.18;;;4.60;72.80;;;;;;5095364;28;20028;-17
2023/03/13 04:51:56;;;;;;;21.33;14.07;;;4.70;73.00;;;;;;5095779;28;20099;-17
2023/03/13 04:54:22;;;;;;;20.38;14.00;;;4.60;72.60;;;;;;5095443;28;20467;-17
2023/03/13 04:56:48;;;;;;;21.73;13.90;;;4.60;72.80;;;;;;5095050;28;20078;-17
2023/03/13 04:59:15;;;;;;;26.98;14.93;;;4.70;72.60;;;;;;5095136;28;20463;-17
2023/03/13 05:01:42;;;;;;;23.92;15.55;;;4.60;72.50;;;;;;5094821;28;20052;-16
2023/03/13 05:04:08;;;;;;;25.08;15.15;;;4.70;72.60;;;;;;5095170;28;20510;-17
2023/03/13 05:06:34;;;;;;;19.05;12.40;;;4.70;72.80;;;;;;5135487;22;20403;-16
2023/03/13 05:09:01;;;;;;;19.45;11.90;;;4.70;73.40;;;;;;5074700;28;20467;-14
2023/03/13 05:11:27;;;;;;;17.52;11.85;;;4.70;72.80;;;;;;5074893;28;20070;-14
2023/03/13 05:13:53;;;;;;;18.90;11.20;;;4.80;72.70;;;;;;5075377;28;20024;-16
2023/03/13 05:16:19;;;;;;;19.42;12.05;;;4.80;72.90;;;;;;5074766;28;20429;-16
2023/03/13 05:18:45;;;;;;;19.65;12.30;;;4.90;72.90;;;;;;5074543;28;20052;-13
2023/03/13 05:21:11;;;;;;;21.52;13.57;;;4.90;73.20;;;;;;5074744;28;20063;-15
2023/03/13 05:23:36;;;;;;;20.90;12.95;;;4.90;73.50;;;;;;5073443;28;20024;-16
2023/03/13 05:26:03;;;;;;;21.40;13.35;;;5.00;73.90;;;;;;5074856;28;20024;-12
2023/03/13 05:28:29;;;;;;;19.73;13.38;;;5.00;73.60;;;;;;5074806;28;20055;-16
2023/03/13 05:30:54;;;;;;;25.33;15.48;;;5.00;73.70;;;;;;5074420;28;20028;-16
2023/03/13 05:33:20;;;;;;;22.55;15.10;;;5.00;73.60;;;;;;5074509;28;20066;-16
2023/03/13 05:35:46;;;;;;;19.05;12.95;;;5.00;73.50;;;;;;5074046;28;20031;-15
2023/03/13 05:38:13;;;;;;;18.42;11.93;;;5.00;73.70;;;;;;5074369;28;20079;-16
2023/03/13 05:40:38;;;;;;;16.10;12.07;;;5.00;74.10;;;;;;5074137;28;20029;-16
2023/03/13 05:43:04;;;;;;;18.55;12.30;;;5.10;73.30;;;;;;5074537;28;20151;-15
2023/03/13 05:45:30;;;;;;;20.10;11.90;;;5.10;73.80;;;;;;5074581;28;20024;-15
2023/03/13 05:47:57;;;;;;;16.80;11.43;;;5.10;74.00;;;;;;5074475;28;20492;-17
2023/03/13 05:50:24;;;;;;;17.67;12.02;;;5.10;74.30;;;;;;5074330;28;20032;-15
2023/03/13 05:52:50;;;;;;;26.15;14.80;;;5.10;74.30;;;;;;5072605;28;20502;-16
2023/03/13 05:55:16;;;;;;;17.98;12.23;;;5.20;74.30;;;;;;5074151;28;20099;-16
2023/03/13 05:57:46;;;;;;;26.83;15.18;;;5.20;74.00;;;;;;5074222;28;20051;-15
2023/03/13 06:00:14;;;;;;;64.20;25.48;;;5.20;73.80;;;;;;5074242;28;20428;-16
2023/03/13 06:02:40;;;;;;;32.45;18.10;;;5.30;73.70;;;;;;5073640;28;20032;-16
2023/03/13 06:05:07;;;;;;;34.95;18.30;;;5.30;73.50;;;;;;5073386;28;20123;-18
2023/03/13 06:07:32;;;;;;;28.88;16.23;;;5.30;73.60;;;;;;5074222;28;20108;-15
2023/03/13 06:09:58;;;;;;;21.42;11.98;;;5.40;73.80;;;;;;5073697;28;20452;-17
2023/03/13 06:12:24;;;;;;;18.95;12.68;;;5.40;73.80;;;;;;5073699;28;20028;-15
2023/03/13 06:14:50;;;;;;;24.15;15.43;;;5.40;74.10;;;;;;5073570;28;20032;-16
2023/03/13 06:17:16;;;;;;;23.05;14.77;;;5.50;75.00;;;;;;5073897;28;20036;-15
2023/03/13 06:19:42;;;;;;;20.17;12.02;;;5.60;76.00;;;;;;5073831;28;20039;-14
2023/03/13 06:22:08;;;;;;;18.83;12.65;;;5.60;75.00;;;;;;5073735;28;20054;-16
2023/03/13 06:24:34;;;;;;;19.67;12.52;;;5.70;74.90;;;;;;5073576;28;20024;-16
2023/03/13 06:26:59;;;;;;;24.63;14.35;;;5.80;74.70;;;;;;5073289;28;20103;-16
2023/03/13 06:29:25;;;;;;;31.83;18.33;;;5.90;74.40;;;;;;5073637;28;20116;-13
2023/03/13 06:31:51;;;;;;;26.13;16.05;;;6.00;75.60;;;;;;5073284;28;20028;-15
2023/03/13 06:34:17;;;;;;;21.98;13.90;;;6.10;75.60;;;;;;5073300;28;20063;-16
2023/03/13 06:36:44;;;;;;;21.08;13.52;;;6.20;75.40;;;;;;5071763;28;20493;-16
2023/03/13 06:39:11;;;;;;;18.77;11.73;;;6.20;75.20;;;;;;5055224;28;20033;-14
2023/03/13 06:41:37;;;;;;;26.23;13.70;;;6.40;75.00;;;;;;5073244;28;20035;-15
2023/03/13 06:44:04;;;;;;;22.98;13.95;;;6.40;74.10;;;;;;5073102;28;20025;-17
2023/03/13 06:46:30;;;;;;;20.08;13.68;;;6.60;75.20;;;;;;5072364;28;20029;-15
2023/03/13 06:48:57;;;;;;;24.15;13.52;;;6.70;74.90;;;;;;5072731;28;20043;-15
2023/03/13 06:51:25;;;;;;;29.90;17.48;;;6.80;75.50;;;;;;5072869;28;20020;-16
2023/03/13 06:53:51;;;;;;;28.70;16.88;;;6.90;75.10;;;;;;5073005;28;20036;-12
2023/03/13 06:56:17;;;;;;;33.55;19.13;;;7.00;73.60;;;;;;5072876;28;20025;-14
2023/03/13 06:58:46;;;;;;;39.88;18.88;;;7.10;73.80;;;;;;5071365;28;20068;-16
2023/03/13 07:01:14;;;;;;;28.00;17.02;;;7.30;73.30;;;;;;5073183;28;20028;-15
2023/03/13 07:03:40;;;;;;;26.52;14.73;;;7.40;73.00;;;;;;5073026;28;20017;-16
2023/03/13 07:06:07;;;;;;;28.80;16.27;;;7.50;72.80;;;;;;5072614;28;20052;-15
2023/03/13 07:08:34;;;;;;;29.08;16.08;;;7.60;72.50;;;;;;5072931;28;20117;-14
2023/03/13 07:11:03;;;;;;;31.85;16.35;;;7.70;72.40;;;;;;5072806;28;20107;-16
2023/03/13 07:13:29;;;;;;;30.00;17.92;;;7.80;74.00;;;;;;5072858;28;20064;-15
2023/03/13 07:15:55;;;;;;;25.08;16.45;;;7.90;74.40;;;;;;5072584;28;20489;-14
2023/03/13 07:18:22;;;;;;;22.73;13.80;;;7.90;74.40;;;;;;5072562;28;20035;-14
2023/03/13 07:20:56;;;;;;;21.70;14.02;;;8.00;73.80;;;;;;5072272;28;20495;-16
2023/03/13 07:23:23;;;;;;;28.55;16.80;;;8.10;73.10;;;;;;5072781;28;20016;-14
2023/03/13 07:26:01;;;;;;;25.52;15.40;;;8.30;73.60;;;;;;5072564;28;20360;-15
2023/03/13 07:28:29;;;;;;;22.63;14.85;;;8.40;74.50;;;;;;5072373;28;20380;-17
2023/03/13 07:31:02;;;;;;;19.63;13.65;;;8.60;73.90;;;;;;5072154;28;20024;-14
2023/03/13 07:33:27;;;;;;;26.98;15.05;;;8.70;74.80;;;;;;5072393;28;20452;-19
2023/03/13 07:35:53;;;;;;;26.23;14.80;;;8.80;75.60;;;;;;5072276;28;20040;-17
2023/03/13 07:38:19;;;;;;;21.63;13.60;;;8.90;74.70;;;;;;5072340;28;20070;-17
2023/03/13 07:40:54;;;;;;;22.20;13.43;;;9.00;74.20;;;;;;5070759;28;20033;-16
2023/03/13 07:43:21;;;;;;;26.48;16.08;;;9.10;73.10;;;;;;5072215;28;20028;-17
2023/03/13 07:45:54;;;;;;;25.17;14.55;;;9.30;73.30;;;;;;5072172;28;20039;-16
2023/03/13 07:48:21;;;;;;;21.80;12.60;;;9.40;74.50;;;;;;5072384;28;20017;-15
2023/03/13 07:50:47;;;;;;;20.10;12.75;;;9.40;72.50;;;;;;5071897;28;20036;-19
2023/03/13 07:53:19;;;;;;;19.80;12.43;;;9.60;72.70;;;;;;5072643;28;20033;-18
2023/03/13 07:56:00;;;;;;;21.13;13.63;;;9.80;72.50;;;;;;5072195;28;20457;-16
2023/03/13 07:58:29;;;;;;;20.85;12.93;;;9.90;72.60;;;;;;5074900;28;20071;-14
2023/03/13 08:00:55;;;;;;;16.90;10.93;;;10.00;71.60;;;;;;5075681;28;20016;-18
2023/03/13 08:03:22;;;;;;;17.52;10.90;;;10.20;71.60;;;;;;5076455;28;20047;-16
2023/03/13 08:05:56;;;;;;;20.90;12.25;;;10.30;70.80;;;;;;5075800;28;20048;-16
2023/03/13 08:08:22;;;;;;;16.42;11.00;;;10.40;71.00;;;;;;5076176;28;20448;-15
2023/03/13 08:10:48;;;;;;;20.83;12.00;;;10.60;70.30;;;;;;5076163;28;20082;-14
2023/03/13 08:13:13;;;;;;;19.10;11.95;;;10.70;70.40;;;;;;5075947;28;20032;-15
2023/03/13 08:15:39;;;;;;;19.35;10.80;;;10.90;70.60;;;;;;5076549;28;20028;-16
2023/03/13 08:18:05;;;;;;;19.05;11.75;;;11.00;69.80;;;;;;5075927;28;20068;-15
2023/03/13 08:20:31;;;;;;;25.60;14.55;;;11.20;69.40;;;;;;5075831;28;20021;-17
2023/03/13 08:22:56;;;;;;;19.55;11.90;;;11.50;69.30;;;;;;5075506;28;20032;-16
2023/03/13 08:25:22;;;;;;;17.42;11.13;;;11.60;68.80;;;;;;5076101;28;20059;-15
2023/03/13 08:27:48;;;;;;;22.60;11.95;;;11.90;68.50;;;;;;5075619;28;20027;-15
2023/03/13 08:30:14;;;;;;;19.95;12.25;;;12.10;68.80;;;;;;5075555;28;20025;-15
2023/03/13 08:32:40;;;;;;;17.40;10.32;;;12.40;67.60;;;;;;5075366;28;20029;-16
2023/03/13 08:35:06;;;;;;;15.43;9.60;;;12.60;66.90;;;;;;5075426;28;20024;-14
2023/03/13 08:37:32;;;;;;;16.33;9.52;;;12.80;66.20;;;;;;5075794;28;20028;-15
2023/03/13 08:39:58;;;;;;;13.52;9.05;;;12.90;65.80;;;;;;5075739;28;20024;-16
2023/03/13 08:42:24;;;;;;;14.18;8.98;;;12.90;64.30;;;;;;5075627;28;20438;-16
2023/03/13 08:44:50;;;;;;;13.65;9.55;;;13.00;64.90;;;;;;5074964;28;20050;-17
2023/03/13 08:47:17;;;;;;;13.02;9.27;;;13.10;64.30;;;;;;5075290;28;20146;-16
2023/03/13 08:49:43;;;;;;;15.75;10.00;;;13.20;63.60;;;;;;5075199;28;20060;-18
2023/03/13 08:52:09;;;;;;;13.32;9.05;;;13.30;63.50;;;;;;5073834;28;20028;-17
2023/03/13 08:54:35;;;;;;;13.68;9.13;;;13.40;62.70;;;;;;5075283;28;20043;-15
2023/03/13 08:57:01;;;;;;;16.45;8.93;;;13.50;62.40;;;;;;5074956;28;20336;-17
2023/03/13 08:59:27;;;;;;;13.38;8.88;;;13.60;62.40;;;;;;5075053;28;20402;-15
2023/03/13 09:01:53;;;;;;;12.50;8.88;;;13.80;61.70;;;;;;5075209;28;20025;-18
2023/03/13 09:04:19;;;;;;;13.57;8.48;;;14.00;61.30;;;;;;5075324;28;20020;-16
2023/03/13 09:06:45;;;;;;;15.10;8.50;;;14.20;58.90;;;;;;5074423;28;20048;-15
2023/03/13 09:09:12;;;;;;;15.57;9.07;;;14.40;60.00;;;;;;5072919;28;20021;-18
2023/03/13 09:11:38;;;;;;;12.85;8.13;;;14.80;59.40;;;;;;5074880;28;20028;-17
2023/03/13 09:14:05;;;;;;;15.57;9.20;;;15.00;56.00;;;;;;5075118;28;20016;-17
2023/03/13 09:16:32;;;;;;;11.68;6.93;;;15.20;56.90;;;;;;5075107;28;20032;-14
2023/03/13 09:18:59;;;;;;;10.73;7.38;;;15.40;55.90;;;;;;5074384;28;20027;-13
2023/03/13 09:21:28;;;;;;;13.55;7.07;;;15.50;52.50;;;;;;5074570;28;20047;-13
2023/03/13 09:23:54;;;;;;;10.32;6.90;;;15.50;51.20;;;;;;5074585;28;20024;-16
2023/03/13 09:26:21;;;;;;;9.65;5.90;;;15.50;52.00;;;;;;5074583;28;20036;-15
2023/03/13 09:28:47;;;;;;;12.00;7.28;;;15.60;51.70;;;;;;5074189;28;20028;-15
2023/03/13 09:31:23;;;;;;;10.73;6.20;;;15.60;50.40;;;;;;5074810;28;20036;-12
2023/03/13 09:33:50;;;;;;;10.68;7.40;;;15.80;51.50;;;;;;5073223;28;20024;-16
2023/03/13 09:36:17;;;;;;;10.63;6.80;;;16.00;49.80;;;;;;5072992;28;20029;-16
2023/03/13 09:38:43;;;;;;;10.30;6.53;;;16.10;52.00;;;;;;5074287;28;20048;-17
2023/03/13 09:41:24;;;;;;;9.57;6.47;;;16.30;52.20;;;;;;5074522;28;20040;-16
2023/03/13 09:43:59;;;;;;;12.98;6.68;;;16.60;52.10;;;;;;5074342;28;20467;-16
2023/03/13 09:46:46;;;;;;;14.13;8.00;;;16.90;52.20;;;;;;5073032;28;20087;-14
2023/03/13 09:49:40;;;;;;;14.20;7.07;;;17.00;50.00;;;;;;5075006;28;20044;-15
2023/03/13 09:52:21;;;;;;;12.15;6.43;;;17.00;49.40;;;;;;5074087;28;20024;-16
2023/03/13 09:54:57;;;;;;;11.50;6.75;;;17.30;49.90;;;;;;5074194;28;20079;-16
2023/03/13 09:57:30;;;;;;;10.35;7.18;;;17.60;48.10;;;;;;5074119;28;20029;-12
2023/03/13 10:00:27;;;;;;;9.40;6.43;;;17.90;45.50;;;;;;5074076;28;20090;-15
2023/03/13 10:03:02;;;;;;;12.30;7.70;;;18.10;47.40;;;;;;5073440;28;20033;-16
2023/03/13 10:05:30;;;;;;;11.10;6.45;;;18.40;46.90;;;;;;5073818;28;20044;-16
2023/03/13 10:08:22;;;;;;;11.98;6.82;;;18.50;46.20;;;;;;5152209;22;20037;-20
2023/03/13 10:10:57;;;;;;;13.75;7.70;;;18.60;46.70;;;;;;5094060;28;20035;-19
2023/03/13 10:13:52;;;;;;;13.55;7.03;;;18.70;46.00;;;;;;5094342;28;20034;-19
2023/03/13 10:16:43;;;;;;;13.07;7.40;;;18.80;45.00;;;;;;5094138;28;20020;-19
2023/03/13 10:19:19;;;;;;;11.43;6.88;;;19.00;45.20;;;;;;5093863;28;20032;-19
2023/03/13 10:21:51;;;;;;;12.50;6.97;;;19.10;44.70;;;;;;5093243;28;20095;-18
2023/03/13 10:24:28;;;;;;;16.67;8.50;;;19.20;44.20;;;;;;5093755;28;20077;-19
2023/03/13 10:29:29;;;;;;;12.10;6.70;;;19.40;44.70;;;;;;5070589;28;20045;-16
2023/03/13 10:32:03;;;;;;;12.43;7.30;;;19.50;44.20;;;;;;5073426;28;20529;-16
2023/03/13 10:34:53;;;;;;;12.95;6.47;;;19.80;43.90;;;;;;5073573;28;20028;-14
2023/03/13 10:37:22;;;;;;;11.55;7.00;;;20.10;43.70;;;;;;5072126;28;20032;-15
2023/03/13 10:39:47;;;;;;;11.13;6.18;;;20.40;41.20;;;;;;5073502;28;20100;-14
2023/03/13 10:42:22;;;;;;;10.00;5.68;;;20.50;40.80;;;;;;5073295;28;20174;-15
2023/03/13 10:44:49;;;;;;;9.20;5.30;;;20.60;39.60;;;;;;5073391;28;20028;-14
2023/03/13 10:47:15;;;;;;;9.45;5.22;;;20.80;40.50;;;;;;5073177;28;20024;-16
2023/03/13 10:49:54;;;;;;;9.52;5.75;;;20.90;40.20;;;;;;5073260;28;20028;-15
2023/03/13 10:52:42;;;;;;;11.65;6.07;;;20.90;39.60;;;;;;5071711;28;20052;-15
2023/03/13 10:55:15;;;;;;;8.23;5.13;;;20.90;39.50;;;;;;5073308;28;20032;-14
2023/03/13 10:57:50;;;;;;;10.18;5.13;;;20.90;40.00;;;;;;5073159;28;20534;-14
2023/03/13 11:00:38;;;;;;;9.15;5.22;;;21.00;39.80;;;;;;5073214;28;20028;-14
2023/03/13 11:03:25;;;;;;;10.80;5.70;;;21.10;38.90;;;;;;5073084;28;20032;-14
2023/03/13 11:06:01;;;;;;;7.80;4.93;;;20.90;37.90;;;;;;5072773;28;20028;-15
2023/03/13 11:08:34;;;;;;;9.00;5.82;;;20.90;38.20;;;;;;5072636;28;20020;-14
2023/03/13 11:11:05;;;;;;;8.93;5.90;;;21.00;39.00;;;;;;5072548;28;20040;-16
2023/03/13 11:13:44;;;;;;;12.75;6.47;;;21.30;38.20;;;;;;5072676;28;20035;-17
2023/03/13 11:16:20;;;;;;;8.05;5.40;;;21.60;37.40;;;;;;5072668;28;20024;-15
2023/03/13 11:19:12;;;;;;;10.13;6.10;;;21.80;38.50;;;;;;5072507;28;20099;-12
2023/03/13 11:22:04;;;;;;;9.48;6.35;;;22.10;36.60;;;;;;5072669;28;20028;-14
2023/03/13 11:24:39;;;;;;;10.60;5.93;;;22.30;37.80;;;;;;5072687;28;20040;-14
2023/03/13 11:27:17;;;;;;;8.02;6.10;;;22.60;36.80;;;;;;5072354;28;20029;-15
2023/03/13 11:29:59;;;;;;;11.05;6.57;;;22.90;35.30;;;;;;5072374;28;20086;-15
2023/03/13 11:32:42;;;;;;;10.10;6.55;;;23.00;34.00;;;;;;5072441;28;20025;-15
2023/03/13 11:35:17;;;;;;;8.35;5.72;;;22.90;31.90;;;;;;5073084;28;20032;-15
2023/03/13 11:37:43;;;;;;;9.73;4.97;;;22.80;35.30;;;;;;5072308;28;20032;-14
2023/03/13 11:40:26;;;;;;;7.15;4.95;;;22.70;35.60;;;;;;5072615;28;20554;-14
2023/03/13 11:43:08;;;;;;;8.20;4.20;;;22.80;35.60;;;;;;5071997;28;20384;-15
2023/03/13 11:46:09;;;;;;;7.35;3.75;;;22.80;35.50;;;;;;5072618;28;20258;-15
2023/03/13 11:49:00;;;;;;;6.55;3.60;;;22.80;34.30;;;;;;5054724;28;20048;-15
2023/03/13 11:51:48;;;;;;;6.55;4.00;;;23.00;33.30;;;;;;5072112;28;20505;-15
2023/03/13 11:54:35;;;;;;;8.25;4.18;;;23.00;31.80;;;;;;5072197;28;20039;-13
2023/03/13 11:57:06;;;;;;;5.78;3.80;;;23.10;32.50;;;;;;5071920;28;20028;-17
2023/03/13 11:59:59;;;;;;;5.45;4.05;;;22.90;33.20;;;;;;5072357;28;20032;-14
2023/03/13 12:02:32;;;;;;;6.43;3.40;;;22.80;33.70;;;;;;5072194;28;20123;-15
2023/03/13 12:05:00;;;;;;;;;;;22.60;33.70;;;;;;5072239;28;20082;-14
2023/03/13 12:07:41;;;;;;;4.72;3.15;;;22.40;33.50;;;;;;5072103;28;19904;-16
2023/03/13 12:10:40;;;;;;;6.15;3.28;;;22.40;34.70;;;;;;5070653;28;20365;-13
2023/03/13 12:13:19;;;;;;;7.68;3.90;;;22.40;34.60;;;;;;4990878;28;20049;-16
2023/03/13 12:15:52;;;;;;;5.35;3.45;;;22.40;34.80;;;;;;4990705;28;20486;-14
2023/03/13 12:18:28;;;;;;;;;;;22.40;35.10;;;;;;4991079;28;20210;-15
2023/03/13 12:21:12;;;;;;;5.78;3.55;;;22.30;34.20;;;;;;4973999;28;19914;-15
2023/03/13 12:23:38;;;;;;;10.07;4.43;;;22.20;35.20;;;;;;4990582;28;20456;-14
2023/03/13 12:26:06;;;;;;;7.72;4.47;;;22.20;34.90;;;;;;4990784;28;20062;-15
2023/03/13 12:28:59;;;;;;;9.30;4.60;;;22.30;34.70;;;;;;4990316;28;20109;-16
2023/03/13 12:31:39;;;;;;;7.43;4.10;;;22.50;34.10;;;;;;4990925;28;20081;-15
2023/03/13 12:34:42;;;;;;;6.15;4.00;;;22.80;33.90;;;;;;4990516;28;20521;-15
2023/03/13 12:37:32;;;;;;;6.80;4.13;;;23.20;33.60;;;;;;4990543;28;20046;-14
2023/03/13 12:40:09;;;;;;;8.73;4.63;;;23.40;33.20;;;;;;4990750;28;20142;-15
2023/03/13 12:43:14;;;;;;;7.38;4.18;;;23.60;33.10;;;;;;4990378;28;20057;-14
2023/03/13 12:46:14;;;;;;;8.50;4.18;;;23.40;31.90;;;;;;4986314;28;20501;-14
2023/03/13 12:48:59;;;;;;;9.38;4.20;;;23.10;32.00;;;;;;4996203;28;20414;-14
2023/03/13 12:52:09;;;;;;;7.18;4.28;;;23.20;34.00;;;;;;5073969;28;20052;-14
2023/03/13 12:55:12;;;;;;;8.45;4.57;;;23.70;33.30;;;;;;5075889;28;20462;-13
2023/03/13 12:57:56;;;;;;;7.63;4.20;;;24.30;32.30;;;;;;5075332;28;20119;-15
2023/03/13 13:00:26;;;;;;;5.70;4.05;;;24.60;30.20;;;;;;5075022;28;20028;-15
2023/03/13 13:03:15;;;;;;;7.82;4.15;;;24.90;31.60;;;;;;5074934;28;20042;-15